sensor_id;sensor_type;location;lat;lon;timestamp;P1;P2;P0
55076;PMS7003;40971;44.702;11.030;2023-07-31T00:05:00;8.71;8.14;6.14
55076;PMS7003;40971;44.702;11.030;2023-07-31T00:15:04;11.00;11.00;7.00
55076;PMS7003;40971;44.702;11.030;2023-07-31T00:25:07;11.33;11.33;7.67
55076;PMS7003;40971;44.702;11.030;2023-07-31T00:35:10;9.17;9.17;7.00
55076;PMS7003;40971;44.702;11.030;2023-07-31T00:45:11;10.00;10.00;7.33
55076;PMS7003;40971;44.702;11.030;2023-07-31T00:55:13;13.33;12.00;9.00
55076;PMS7003;40971;44.702;11.030;2023-07-31T01:05:15;10.00;10.00;7.00
55076;PMS7003;40971;44.702;11.030;2023-07-31T01:15:18;10.17;10.17;6.83
55076;PMS7003;40971;44.702;11.030;2023-07-31T01:35:31;11.40;11.20;9.00
55076;PMS7003;40971;44.702;11.030;2023-07-31T01:45:32;16.67;13.33;11.00
55076;PMS7003;40971;44.702;11.030;2023-07-31T01:55:34;12.20;12.20;9.80
55076;PMS7003;40971;44.702;11.030;2023-07-31T02:05:35;14.33;13.00;10.00
55076;PMS7003;40971;44.702;11.030;2023-07-31T02:15:38;13.00;13.00;10.33
55076;PMS7003;40971;44.702;11.030;2023-07-31T02:25:40;11.67;11.00;9.00
55076;PMS7003;40971;44.702;11.030;2023-07-31T02:35:40;7.00;7.00;7.00
55076;PMS7003;40971;44.702;11.030;2023-07-31T02:45:42;10.33;10.33;7.67
55076;PMS7003;40971;44.702;11.030;2023-07-31T02:55:44;8.80;8.80;7.00
55076;PMS7003;40971;44.702;11.030;2023-07-31T03:05:45;12.00;11.00;9.00
55076;PMS7003;40971;44.702;11.030;2023-07-31T03:15:46;9.33;7.67;6.33
55076;PMS7003;40971;44.702;11.030;2023-07-31T03:25:58;9.50;9.50;6.17
55076;PMS7003;40971;44.702;11.030;2023-07-31T03:36:02;9.83;9.83;8.33
55076;PMS7003;40971;44.702;11.030;2023-07-31T03:46:05;8.00;8.00;6.00
55076;PMS7003;40971;44.702;11.030;2023-07-31T03:56:08;10.80;10.80;8.00
55076;PMS7003;40971;44.702;11.030;2023-07-31T04:06:09;9.00;9.00;6.00
55076;PMS7003;40971;44.702;11.030;2023-07-31T04:16:12;8.67;8.67;5.67
55076;PMS7003;40971;44.702;11.030;2023-07-31T04:26:16;11.29;10.00;8.43
55076;PMS7003;40971;44.702;11.030;2023-07-31T04:36:18;12.40;12.40;9.80
55076;PMS7003;40971;44.702;11.030;2023-07-31T04:46:22;12.00;11.57;8.71
55076;PMS7003;40971;44.702;11.030;2023-07-31T04:56:23;11.00;11.00;9.00
55076;PMS7003;40971;44.702;11.030;2023-07-31T05:06:24;14.33;14.33;12.00
55076;PMS7003;40971;44.702;11.030;2023-07-31T05:16:25;17.67;17.67;12.33
55076;PMS7003;40971;44.702;11.030;2023-07-31T05:26:27;20.20;18.20;12.60
55076;PMS7003;40971;44.702;11.030;2023-07-31T05:36:28;14.67;14.67;11.67
55076;PMS7003;40971;44.702;11.030;2023-07-31T05:46:31;20.67;20.67;14.00
55076;PMS7003;40971;44.702;11.030;2023-07-31T05:56:33;26.00;24.33;17.67
55076;PMS7003;40971;44.702;11.030;2023-07-31T06:06:36;32.67;31.00;21.00
55076;PMS7003;40971;44.702;11.030;2023-07-31T06:16:41;30.56;29.11;21.78
55076;PMS7003;40971;44.702;11.030;2023-07-31T06:26:46;27.67;27.67;20.33
55076;PMS7003;40971;44.702;11.030;2023-07-31T06:36:51;24.56;24.22;15.78
55076;PMS7003;40971;44.702;11.030;2023-07-31T06:46:53;20.33;20.00;14.00
55076;PMS7003;40971;44.702;11.030;2023-07-31T06:56:56;22.67;22.33;17.00
55076;PMS7003;40971;44.702;11.030;2023-07-31T07:06:57;21.00;18.50;13.50
55076;PMS7003;40971;44.702;11.030;2023-07-31T07:16:58;10.33;10.33;9.00
55076;PMS7003;40971;44.702;11.030;2023-07-31T07:27:00;9.00;9.00;7.00
55076;PMS7003;40971;44.702;11.030;2023-07-31T07:37:01;12.33;11.67;8.67
55076;PMS7003;40971;44.702;11.030;2023-07-31T07:47:03;8.00;8.00;7.00
55076;PMS7003;40971;44.702;11.030;2023-07-31T07:57:06;9.00;9.00;8.00
55076;PMS7003;40971;44.702;11.030;2023-07-31T08:07:07;12.33;10.00;9.00
55076;PMS7003;40971;44.702;11.030;2023-07-31T08:17:08;10.00;9.00;7.67
55076;PMS7003;40971;44.702;11.030;2023-07-31T08:27:09;9.00;9.00;8.00
55076;PMS7003;40971;44.702;11.030;2023-07-31T08:37:10;6.67;6.67;5.33
55076;PMS7003;40971;44.702;11.030;2023-07-31T08:47:12;9.00;9.00;7.00
55076;PMS7003;40971;44.702;11.030;2023-07-31T08:57:13;10.00;9.00;8.00
55076;PMS7003;40971;44.702;11.030;2023-07-31T09:07:15;9.00;9.00;8.00
55076;PMS7003;40971;44.702;11.030;2023-07-31T09:17:28;7.00;7.00;5.00
55076;PMS7003;40971;44.702;11.030;2023-07-31T09:27:45;6.50;6.50;6.00
55076;PMS7003;40971;44.702;11.030;2023-07-31T09:37:51;6.00;6.00;6.00
55076;PMS7003;40971;44.702;11.030;2023-07-31T09:47:54;7.50;7.50;6.00
55076;PMS7003;40971;44.702;11.030;2023-07-31T09:57:55;5.50;5.50;5.00
55076;PMS7003;40971;44.702;11.030;2023-07-31T10:07:58;7.00;7.00;6.00
55076;PMS7003;40971;44.702;11.030;2023-07-31T10:18:00;7.17;6.17;5.50
55076;PMS7003;40971;44.702;11.030;2023-07-31T10:28:02;7.00;7.00;6.00
55076;PMS7003;40971;44.702;11.030;2023-07-31T10:38:09;8.67;7.67;6.00
55076;PMS7003;40971;44.702;11.030;2023-07-31T10:48:13;7.00;7.00;6.00
55076;PMS7003;40971;44.702;11.030;2023-07-31T10:58:18;7.50;7.50;6.00
55076;PMS7003;40971;44.702;11.030;2023-07-31T11:08:25;10.33;9.33;7.00
55076;PMS7003;40971;44.702;11.030;2023-07-31T11:18:27;7.50;7.50;6.00
55076;PMS7003;40971;44.702;11.030;2023-07-31T11:28:31;10.00;8.67;8.00
55076;PMS7003;40971;44.702;11.030;2023-07-31T11:38:34;8.00;8.00;7.00
55076;PMS7003;40971;44.702;11.030;2023-07-31T11:48:36;9.00;8.00;6.00
55076;PMS7003;40971;44.702;11.030;2023-07-31T11:58:38;9.33;8.33;6.67
55076;PMS7003;40971;44.702;11.030;2023-07-31T12:08:41;7.50;7.50;7.00
55076;PMS7003;40971;44.702;11.030;2023-07-31T12:18:43;9.00;9.00;8.00
55076;PMS7003;40971;44.702;11.030;2023-07-31T12:28:49;7.20;7.20;6.80
55076;PMS7003;40971;44.702;11.030;2023-07-31T12:38:52;11.20;8.80;6.80
55076;PMS7003;40971;44.702;11.030;2023-07-31T12:48:54;9.00;9.00;8.00
55076;PMS7003;40971;44.702;11.030;2023-07-31T12:58:55;9.00;9.00;8.00
55076;PMS7003;40971;44.702;11.030;2023-07-31T13:08:56;8.33;8.33;6.67
55076;PMS7003;40971;44.702;11.030;2023-07-31T13:18:58;9.33;9.33;8.00
55076;PMS7003;40971;44.702;11.030;2023-07-31T13:28:59;13.00;13.00;9.00
55076;PMS7003;40971;44.702;11.030;2023-07-31T13:39:00;9.00;9.00;8.33
55076;PMS7003;40971;44.702;11.030;2023-07-31T13:49:01;11.00;11.00;7.67
55076;PMS7003;40971;44.702;11.030;2023-07-31T13:59:03;10.00;9.67;7.33
55076;PMS7003;40971;44.702;11.030;2023-07-31T14:09:06;8.50;8.50;7.50
55076;PMS7003;40971;44.702;11.030;2023-07-31T14:19:06;8.00;8.00;6.00
55076;PMS7003;40971;44.702;11.030;2023-07-31T14:29:09;11.40;11.20;9.40
55076;PMS7003;40971;44.702;11.030;2023-07-31T14:39:11;8.67;8.67;7.33
55076;PMS7003;40971;44.702;11.030;2023-07-31T14:49:12;9.33;9.33;7.00
55076;PMS7003;40971;44.702;11.030;2023-07-31T14:59:13;10.00;9.00;8.00
55076;PMS7003;40971;44.702;11.030;2023-07-31T15:09:16;10.60;10.60;8.80
55076;PMS7003;40971;44.702;11.030;2023-07-31T15:19:18;8.80;8.80;7.20
55076;PMS7003;40971;44.702;11.030;2023-07-31T15:29:20;8.33;8.33;7.00
55076;PMS7003;40971;44.702;11.030;2023-07-31T15:39:23;10.14;10.14;8.57
55076;PMS7003;40971;44.702;11.030;2023-07-31T15:49:26;9.43;9.43;8.43
55076;PMS7003;40971;44.702;11.030;2023-07-31T15:59:30;11.00;11.00;8.71
55076;PMS7003;40971;44.702;11.030;2023-07-31T16:09:31;10.00;10.00;8.00
55076;PMS7003;40971;44.702;11.030;2023-07-31T16:19:33;11.00;11.00;8.40
55076;PMS7003;40971;44.702;11.030;2023-07-31T16:29:36;10.43;10.43;9.57
55076;PMS7003;40971;44.702;11.030;2023-07-31T16:39:38;10.67;10.67;8.33
55076;PMS7003;40971;44.702;11.030;2023-07-31T16:49:41;9.33;9.33;7.00
55076;PMS7003;40971;44.702;11.030;2023-07-31T16:59:42;11.00;10.00;9.00
55076;PMS7003;40971;44.702;11.030;2023-07-31T17:09:43;10.67;10.67;10.00
55076;PMS7003;40971;44.702;11.030;2023-07-31T17:19:44;12.00;12.00;10.00
55076;PMS7003;40971;44.702;11.030;2023-07-31T17:29:45;9.00;9.00;8.00
55076;PMS7003;40971;44.702;11.030;2023-07-31T17:39:55;10.20;10.20;9.00
55076;PMS7003;40971;44.702;11.030;2023-07-31T17:49:56;6.00;6.00;5.00
55076;PMS7003;40971;44.702;11.030;2023-07-31T17:59:57;7.00;7.00;5.67
55076;PMS7003;40971;44.702;11.030;2023-07-31T18:09:58;7.50;7.50;7.00
55076;PMS7003;40971;44.702;11.030;2023-07-31T18:20:00;7.00;7.00;6.00
55076;PMS7003;40971;44.702;11.030;2023-07-31T18:30:01;5.00;5.00;4.33
55076;PMS7003;40971;44.702;11.030;2023-07-31T18:40:05;6.17;6.00;5.67
55076;PMS7003;40971;44.702;11.030;2023-07-31T18:50:06;8.00;8.00;6.50
55076;PMS7003;40971;44.702;11.030;2023-07-31T19:00:07;8.00;8.00;6.00
55076;PMS7003;40971;44.702;11.030;2023-07-31T19:10:09;6.50;6.50;5.00
55076;PMS7003;40971;44.702;11.030;2023-07-31T19:20:11;10.00;10.00;8.00
55076;PMS7003;40971;44.702;11.030;2023-07-31T19:30:12;10.00;9.00;7.00
55076;PMS7003;40971;44.702;11.030;2023-07-31T19:40:15;9.86;9.00;7.43
55076;PMS7003;40971;44.702;11.030;2023-07-31T19:50:16;7.00;7.00;6.00
55076;PMS7003;40971;44.702;11.030;2023-07-31T20:00:17;8.00;7.00;6.00
55076;PMS7003;40971;44.702;11.030;2023-07-31T20:10:18;8.00;8.00;7.00
55076;PMS7003;40971;44.702;11.030;2023-07-31T20:20:21;9.86;8.86;7.29
55076;PMS7003;40971;44.702;11.030;2023-07-31T20:30:22;8.00;7.00;6.00
55076;PMS7003;40971;44.702;11.030;2023-07-31T20:40:25;9.17;7.67;6.00
55076;PMS7003;40971;44.702;11.030;2023-07-31T20:50:28;7.67;7.67;7.00
55076;PMS7003;40971;44.702;11.030;2023-07-31T21:00:32;10.83;10.83;8.67
55076;PMS7003;40971;44.702;11.030;2023-07-31T21:10:37;8.00;8.00;7.00
55076;PMS7003;40971;44.702;11.030;2023-07-31T21:20:44;8.67;7.00;6.83
55076;PMS7003;40971;44.702;11.030;2023-07-31T21:30:48;9.00;9.00;7.50
55076;PMS7003;40971;44.702;11.030;2023-07-31T21:40:51;12.67;11.00;9.00
55076;PMS7003;40971;44.702;11.030;2023-07-31T21:50:54;11.71;11.71;10.43
55076;PMS7003;40971;44.702;11.030;2023-07-31T22:00:55;12.33;12.33;7.67
55076;PMS7003;40971;44.702;11.030;2023-07-31T22:11:07;15.00;14.00;11.33
55076;PMS7003;40971;44.702;11.030;2023-07-31T22:21:08;14.67;14.67;12.67
55076;PMS7003;40971;44.702;11.030;2023-07-31T22:31:10;15.00;15.00;12.00
55076;PMS7003;40971;44.702;11.030;2023-07-31T22:41:16;14.00;13.20;11.00
55076;PMS7003;40971;44.702;11.030;2023-07-31T22:51:17;17.00;15.00;12.00
55076;PMS7003;40971;44.702;11.030;2023-07-31T23:01:18;16.00;16.00;13.00
55076;PMS7003;40971;44.702;11.030;2023-07-31T23:11:21;13.00;13.00;11.00
55076;PMS7003;40971;44.702;11.030;2023-07-31T23:21:22;16.33;15.33;12.33
55076;PMS7003;40971;44.702;11.030;2023-07-31T23:31:24;18.20;17.20;13.20
55076;PMS7003;40971;44.702;11.030;2023-07-31T23:41:25;14.60;14.60;12.60
55076;PMS7003;40971;44.702;11.030;2023-07-31T23:51:27;18.00;16.50;14.00
